createdAt,value
2019-03-26T00:01:11.593Z,16.90
2019-03-26T00:06:18.952Z,14.55
2019-03-26T00:11:26.306Z,16.85
2019-03-26T00:16:33.556Z,16.35
2019-03-26T00:21:40.916Z,14.87
2019-03-26T00:26:48.258Z,16.62
2019-03-26T00:31:55.542Z,19.45
2019-03-26T00:37:03.573Z,19.60
2019-03-26T00:42:12.627Z,16.57
2019-03-26T00:47:20.042Z,16.93
2019-03-26T00:52:27.468Z,18.40
2019-03-26T00:57:34.813Z,21.12
2019-03-26T01:02:42.247Z,18.92
2019-03-26T01:07:49.658Z,20.30
2019-03-26T01:12:57.111Z,20.72
2019-03-26T01:18:05.154Z,20.90
2019-03-26T01:23:12.579Z,18.70
2019-03-26T01:28:20.002Z,16.62
2019-03-26T01:33:27.340Z,16.65
2019-03-26T01:38:34.699Z,22.42
2019-03-26T01:43:42.062Z,18.60
2019-03-26T01:48:49.245Z,18.65
2019-03-26T01:53:56.496Z,16.75
2019-03-26T01:59:03.902Z,15.60
2019-03-26T02:04:12.229Z,16.95
2019-03-26T02:09:19.765Z,15.95
2019-03-26T02:14:27.282Z,14.38
2019-03-26T02:19:34.644Z,16.30
2019-03-26T02:24:42.083Z,16.23
2019-03-26T02:29:49.355Z,13.48
2019-03-26T02:34:56.889Z,13.88
2019-03-26T02:40:04.255Z,13.48
2019-03-26T02:45:11.801Z,12.78
2019-03-26T02:50:19.244Z,12.30
2019-03-26T02:55:26.666Z,14.80
2019-03-26T03:00:34.103Z,14.93
2019-03-26T03:05:41.309Z,14.03
2019-03-26T03:10:48.668Z,13.65
2019-03-26T03:15:56.017Z,14.65
2019-03-26T03:21:03.445Z,16.85
2019-03-26T03:26:10.920Z,13.48
2019-03-26T03:31:18.261Z,16.17
2019-03-26T03:36:25.641Z,16.77
2019-03-26T03:41:33.006Z,15.23
2019-03-26T03:46:41.788Z,17.80
2019-03-26T03:51:51.695Z,17.77
2019-03-26T03:57:01.576Z,19.90
2019-03-26T04:02:09.015Z,18.67
2019-03-26T04:07:16.454Z,19.87
2019-03-26T04:12:23.894Z,16.10
2019-03-26T04:17:31.188Z,15.63
2019-03-26T04:22:38.683Z,18.87
2019-03-26T04:27:46.173Z,20.65
2019-03-26T04:32:53.587Z,21.73
2019-03-26T04:38:01.267Z,23.75
2019-03-26T04:43:08.620Z,18.95
2019-03-26T04:48:15.980Z,20.10
2019-03-26T04:53:23.432Z,17.73
2019-03-26T04:58:30.722Z,21.45
2019-03-26T05:03:37.910Z,15.88
2019-03-26T05:08:45.254Z,17.27
2019-03-26T05:13:52.604Z,22.60
2019-03-26T05:19:00.038Z,20.65
2019-03-26T05:24:07.368Z,18.60
2019-03-26T05:29:14.645Z,18.20
2019-03-26T05:34:22.002Z,20.15
2019-03-26T05:39:29.360Z,21.80
2019-03-26T05:44:36.564Z,22.77
2019-03-26T05:49:43.986Z,18.55
2019-03-26T05:54:51.244Z,22.05
2019-03-26T05:59:58.516Z,19.65
2019-03-26T06:05:06.021Z,20.82
2019-03-26T06:10:13.676Z,21.23
2019-03-26T06:15:21.103Z,16.17
2019-03-26T06:20:28.537Z,18.98
2019-03-26T06:25:35.882Z,15.95
2019-03-26T06:30:43.306Z,16.90
2019-03-26T06:35:50.754Z,19.85
2019-03-26T06:40:58.080Z,16.27
2019-03-26T06:46:05.519Z,19.32
2019-03-26T06:51:12.945Z,17.45
2019-03-26T06:56:20.288Z,18.60
2019-03-26T07:01:27.810Z,20.50
2019-03-26T07:06:35.230Z,18.32
2019-03-26T07:11:42.573Z,19.85
2019-03-26T07:16:50.071Z,17.02
2019-03-26T07:21:57.505Z,23.80
2019-03-26T07:27:04.993Z,26.23
2019-03-26T07:32:12.346Z,23.62
2019-03-26T07:37:19.808Z,21.73
2019-03-26T07:42:27.229Z,21.07
2019-03-26T07:47:34.665Z,24.18
2019-03-26T07:52:42.025Z,18.67
2019-03-26T07:57:49.372Z,18.95
2019-03-26T08:02:56.646Z,17.40
2019-03-26T08:08:04.098Z,24.32
2019-03-26T08:13:11.656Z,18.40
2019-03-26T08:18:18.988Z,19.75
2019-03-26T08:23:26.315Z,15.90
2019-03-26T08:28:34.796Z,17.85
2019-03-26T08:33:42.224Z,17.67
2019-03-26T08:38:49.590Z,24.40
2019-03-26T08:43:56.940Z,23.30
2019-03-26T08:49:04.283Z,22.13
2019-03-26T08:54:11.563Z,25.43
2019-03-26T08:59:19.002Z,17.30
2019-03-26T09:04:27.106Z,16.62
2019-03-26T09:09:35.723Z,18.23
2019-03-26T09:14:43.171Z,14.83
2019-03-26T09:19:50.507Z,11.55
2019-03-26T09:24:58.898Z,11.43
2019-03-26T09:30:08.081Z,15.03
2019-03-26T09:35:15.714Z,15.40
2019-03-26T09:40:23.062Z,10.80
2019-03-26T09:45:30.413Z,15.55
2019-03-26T09:50:38.340Z,11.33
2019-03-26T09:55:45.606Z,11.25
2019-03-26T10:00:53.020Z,14.55
2019-03-26T10:06:00.453Z,12.88
2019-03-26T10:11:07.889Z,9.58
2019-03-26T10:16:15.315Z,11.35
2019-03-26T10:21:22.671Z,11.73
2019-03-26T10:26:29.936Z,7.87
2019-03-26T10:31:37.334Z,7.62
2019-03-26T10:36:45.269Z,12.18
2019-03-26T10:41:52.536Z,12.20
2019-03-26T10:46:59.943Z,10.98
2019-03-26T10:52:07.373Z,7.87
2019-03-26T10:57:14.642Z,9.25
2019-03-26T11:02:22.159Z,6.83
2019-03-26T11:07:29.580Z,11.18
2019-03-26T11:12:36.930Z,6.28
2019-03-26T11:17:44.367Z,7.58
2019-03-26T11:22:51.788Z,7.08
2019-03-26T11:27:59.126Z,6.20
2019-03-26T11:33:06.556Z,6.65
2019-03-26T11:38:13.912Z,7.17
2019-03-26T11:43:21.428Z,7.75
2019-03-26T11:48:28.777Z,6.35
2019-03-26T11:53:36.135Z,10.10
2019-03-26T11:58:43.473Z,6.87
2019-03-26T12:03:51.892Z,11.73
2019-03-26T12:08:59.318Z,7.92
2019-03-26T12:14:06.972Z,7.37
2019-03-26T12:19:14.437Z,6.50
2019-03-26T12:24:21.794Z,7.37
2019-03-26T12:29:29.129Z,11.10
2019-03-26T12:34:36.684Z,11.38
2019-03-26T12:39:44.463Z,11.88
2019-03-26T12:44:51.971Z,7.25
2019-03-26T12:49:59.228Z,6.65
2019-03-26T12:55:06.990Z,6.75
2019-03-26T13:00:15.281Z,6.95
2019-03-26T13:05:23.321Z,9.05
2019-03-26T13:10:30.905Z,4.62
2019-03-26T13:15:38.328Z,7.53
2019-03-26T13:20:45.741Z,12.40
2019-03-26T13:25:53.163Z,9.60
2019-03-26T13:31:00.328Z,8.03
2019-03-26T13:36:08.460Z,6.65
2019-03-26T13:41:15.809Z,7.97
2019-03-26T13:46:23.156Z,5.50
2019-03-26T13:51:30.586Z,7.45
2019-03-26T13:56:37.834Z,6.05
2019-03-26T14:01:45.259Z,8.78
2019-03-26T14:06:52.802Z,9.20
2019-03-26T14:12:00.321Z,8.18
2019-03-26T14:17:07.744Z,11.75
2019-03-26T14:22:15.179Z,11.38
2019-03-26T14:27:22.510Z,8.75
2019-03-26T14:32:29.921Z,9.73
2019-03-26T14:37:50.300Z,7.10
2019-03-26T14:42:46.295Z,8.45
2019-03-26T14:47:53.643Z,7.62
2019-03-26T14:53:01.169Z,11.33
2019-03-26T14:58:08.711Z,5.78
2019-03-26T15:03:16.125Z,6.72
2019-03-26T15:08:23.529Z,6.12
2019-03-26T15:13:30.748Z,9.55
2019-03-26T15:18:38.187Z,7.40
2019-03-26T15:23:45.496Z,6.58
2019-03-26T15:28:52.902Z,10.68
2019-03-26T15:34:00.336Z,11.20
2019-03-26T15:39:09.378Z,7.28
2019-03-26T15:44:16.719Z,6.53
2019-03-26T15:49:24.056Z,6.42
2019-03-26T15:54:31.397Z,9.10
2019-03-26T15:59:38.857Z,7.15
2019-03-26T16:04:46.324Z,6.40
2019-03-26T16:09:53.698Z,5.40
2019-03-26T16:15:01.210Z,6.30
2019-03-26T16:20:09.653Z,10.18
2019-03-26T16:25:17.088Z,6.58
2019-03-26T16:30:24.511Z,8.15
2019-03-26T16:35:31.914Z,6.65
2019-03-26T16:40:39.245Z,10.68
2019-03-26T16:45:46.428Z,7.00
2019-03-26T16:50:53.722Z,9.98
2019-03-26T16:56:01.059Z,7.50
2019-03-26T17:01:08.487Z,11.65
2019-03-26T17:06:15.883Z,7.22
2019-03-26T17:11:23.332Z,10.38
2019-03-26T17:16:32.650Z,11.00
2019-03-26T17:21:40.073Z,8.53
2019-03-26T17:26:47.743Z,9.75
2019-03-26T17:31:55.169Z,12.78
2019-03-26T17:37:02.532Z,9.68
2019-03-26T17:42:17.131Z,12.25
2019-03-26T17:47:19.109Z,13.85
2019-03-26T17:52:26.479Z,12.45
2019-03-26T17:57:33.915Z,8.25
2019-03-26T18:02:41.436Z,8.15
2019-03-26T18:07:48.852Z,4.50
2019-03-26T18:12:56.180Z,8.43
2019-03-26T18:18:03.668Z,7.42
2019-03-26T18:23:11.192Z,6.85
2019-03-26T18:28:18.609Z,9.15
2019-03-26T18:33:25.795Z,10.82
2019-03-26T18:38:33.167Z,12.03
2019-03-26T18:43:40.413Z,10.80
2019-03-26T18:48:47.839Z,9.98
2019-03-26T18:53:57.442Z,10.70
2019-03-26T18:59:04.837Z,8.83
2019-03-26T19:04:12.173Z,12.53
2019-03-26T19:09:19.815Z,12.03
2019-03-26T19:14:27.252Z,17.65
2019-03-26T19:19:35.982Z,10.78
2019-03-26T19:24:43.985Z,10.05
2019-03-26T19:29:51.456Z,11.40
2019-03-26T19:34:58.978Z,9.68
2019-03-26T19:40:06.971Z,12.25
2019-03-26T19:45:14.714Z,10.43
2019-03-26T19:50:22.364Z,12.55
2019-03-26T19:55:29.800Z,14.93
2019-03-26T20:00:37.514Z,14.25
2019-03-26T20:05:44.936Z,13.43
2019-03-26T20:10:52.325Z,17.40
2019-03-26T20:15:59.761Z,16.37
2019-03-26T20:21:07.177Z,15.45
2019-03-26T20:26:14.521Z,17.45
2019-03-26T20:31:21.857Z,16.85
2019-03-26T20:36:29.287Z,15.38
2019-03-26T20:41:36.623Z,14.15
2019-03-26T20:46:44.036Z,16.48
2019-03-26T20:51:51.466Z,20.43
2019-03-26T20:56:58.987Z,21.97
2019-03-26T21:02:06.483Z,25.27
2019-03-26T21:07:13.768Z,23.45
2019-03-26T21:12:21.299Z,16.80
2019-03-26T21:17:28.565Z,12.30
2019-03-26T21:22:35.906Z,16.10
2019-03-26T21:27:43.350Z,24.60
2019-03-26T21:32:50.762Z,15.20
2019-03-26T21:37:58.330Z,11.70
2019-03-26T21:43:05.663Z,16.00
2019-03-26T21:48:13.088Z,12.50
2019-03-26T21:53:20.446Z,13.15
2019-03-26T21:58:27.789Z,16.75
2019-03-26T22:03:35.675Z,14.98
2019-03-26T22:08:43.108Z,14.63
2019-03-26T22:13:50.359Z,17.73
2019-03-26T22:18:57.758Z,16.32
2019-03-26T22:24:05.187Z,16.40
2019-03-26T22:29:12.614Z,14.10
2019-03-26T22:34:19.868Z,15.78
2019-03-26T22:39:27.234Z,15.60
2019-03-26T22:44:34.584Z,16.65
2019-03-26T22:49:42.048Z,18.12
2019-03-26T22:54:49.392Z,16.48
2019-03-26T22:59:56.671Z,17.30
2019-03-26T23:05:04.245Z,17.00
2019-03-26T23:10:14.213Z,16.25
2019-03-26T23:15:25.498Z,18.10
2019-03-26T23:20:32.916Z,15.63
2019-03-26T23:25:40.338Z,16.00
2019-03-26T23:30:47.807Z,19.12
2019-03-26T23:35:55.154Z,20.72
2019-03-26T23:41:02.514Z,16.65
2019-03-26T23:46:09.869Z,16.20
2019-03-26T23:51:17.210Z,12.73
2019-03-26T23:56:24.632Z,15.05
